Flight Track Log - Related Links

Times and Time Zones

All times are in EDT time to prevent confusion due to time zone crossing. See the AWI53A flight status page for this flight to view local times or setup timezone preferences in your user account.

Time Position Orientation Groundspeed Altitude Reporting Facility
EDT Latitude Longitude Course Direction KTS MPH feet Rate Location/Type
09:15AM 38.7833 -77.0333 150° Southeast 217 250 2,500  Level Potomac TRACON
09:16AM 38.7167 -76.9833 150° Southeast 259 298 4,700 2,192 Climbing Potomac TRACON
09:17AM 38.6419 -76.8569 127° Southeast 286 329 8,200 2,269 Climbing Washington Center
09:18AM 38.5886 -76.7789 131° Southeast 286 329 10,600 2,083 Climbing Washington Center
09:19AM 38.5203 -76.7247 148° Southeast 286 329 12,400 1,500 Climbing Washington Center
09:20AM 38.4308 -76.7128 174° South 292 336 13,600 1,600 Climbing Washington Center
09:21AM 38.3369 -76.7008 174° South 318 366 15,600 1,770 Climbing Washington Center
09:22AM 38.2578 -76.6864 172° South 328 377 17,200 1,412 Climbing Washington Center
09:23AM 38.1622 -76.6719 173° South 339 390 18,400 1,271 Climbing Washington Center
09:24AM 38.0622 -76.6597 175° South 353 406 19,700 793 Climbing Washington Center
09:25AM 37.9600 -76.6478 175° South 363 418 20,000 149 Climbing Washington Center
09:26AM 37.8619 -76.6569 184° South 363 418 20,000 595 Level Washington Center
09:27AM 37.7617 -76.6714 186° South 363 418 21,200 1,041 Climbing Washington Center
09:28AM 37.6594 -76.6831 185° South 368 423 22,100 857 Climbing Washington Center
09:29AM 37.5528 -76.6972 186° South 373 429 22,900 800 Climbing Washington Center
09:30AM 37.4464 -76.7139 187° South 379 436 23,700 756 Climbing Washington Center
09:31AM 37.3397 -76.7517 196° South 390 449 24,400 661 Climbing Washington Center
09:32AM 37.2347 -76.7969 199° South 397 457 25,000 595 Climbing Washington Center
09:33AM 37.1300 -76.8422 199° South 405 466 25,600 738 Climbing Washington Center
09:34AM 37.0211 -76.8872 198° South 405 466 26,500 706 Climbing Washington Center
09:35AM 36.9122 -76.9297 197° South 410 472 27,000 504 Climbing Washington Center
09:36AM 36.8031 -76.9772 199° South 410 472 27,500 492 Climbing Washington Center
09:37AM 36.6961 -77.0269 200° South 410 472 28,000 252 Climbing Washington Center
09:38AM 36.6033 -77.1158 218° Southwest 410 472 28,000  Level Washington Center
09:39AM 36.5125 -77.2044 218° Southwest 416 479 28,000  Level Washington Center
09:40AM 36.4236 -77.2853 216° Southwest 416 479 28,000  Level Washington Center
09:41AM 36.3347 -77.3686 217° Southwest 411 473 28,000  Level Washington Center
09:42AM 36.2500 -77.4542 219° Southwest 406 467 28,000  Level Washington Center
09:43AM 36.1633 -77.5319 216° Southwest 406 467 28,000  Level Washington Center
09:44AM 36.0744 -77.6119 216° Southwest 400 460 28,000  Level Washington Center
09:45AM 35.9894 -77.6944 218° Southwest 400 460 28,000  Level Washington Center
09:46AM 35.9006 -77.7664 213° Southwest 394 453 28,000  Level Washington Center
09:47AM 35.8075 -77.8383 212° Southwest 388 447 28,000  Level Washington Center
09:48AM 35.7100 -77.9122 212° Southwest 388 447 28,000  Level Washington Center
09:49AM 35.6272 -77.9786 213° Southwest 394 453 28,000  Level Washington Center
09:50AM 35.5278 -78.0575 213° Southwest 394 453 28,000  Level Washington Center
09:51AM 35.4386 -78.1261 212° Southwest 394 453 28,000 -504 Level Washington Center
09:52AM 35.3578 -78.1922 214° Southwest 394 453 27,000 -1,017 Descending Washington Center
09:53AM 35.2644 -78.2631 212° Southwest 394 453 26,000 -496 Descending Washington Center
09:54AM 35.1669 -78.3386 212° Southwest 394 453 26,000  Level Washington Center
09:55AM 35.0861 -78.4019 213° Southwest 388 447 26,000  Level Washington Center
09:56AM 34.9925 -78.4722 212° Southwest 374 430 26,000  Level Washington Center
09:58AM 34.8292 -78.5983 212° Southwest 355 409 26,000  Level Jacksonville Center
09:59AM 34.7419 -78.6658 212° Southwest 361 415 26,000  Level Jacksonville Center
10:00AM 34.6544 -78.7308 211° Southwest 367 422 26,000  Level Jacksonville Center
10:01AM 34.5708 -78.7953 212° Southwest 378 435 26,000  Level Jacksonville Center
10:02AM 34.4833 -78.8625 212° Southwest 383 441 26,000  Level Jacksonville Center
10:03AM 34.3939 -78.9319 213° Southwest 383 441 26,000 -500 Level Jacksonville Center
10:04AM 34.3019 -78.9989 211° Southwest 383 441 25,000 -1,000 Descending Jacksonville Center
10:05AM 34.1994 -79.0539 204° Southwest 388 447 24,000 -1,050 Descending Jacksonville Center
10:06AM 34.0986 -79.1008 201° Southwest 395 455 22,900 -1,300 Descending Jacksonville Center
10:07AM 34.0019 -79.1428 200° South 384 442 21,400 -1,500 Descending Jacksonville Center
10:08AM 33.9114 -79.1842 201° Southwest 370 426 19,900 -1,500 Descending Jacksonville Center
10:09AM 33.8186 -79.2256 200° South 365 420 18,400 -1,450 Descending Jacksonville Center
10:10AM 33.7303 -79.2792 207° Southwest 365 420 17,000 -1,400 Descending Jacksonville Center
10:11AM 33.6589 -79.3369 214° Southwest 337 388 15,600 -1,450 Descending Jacksonville Center
10:12AM 33.5833 -79.3922 211° Southwest 326 375 14,100 -1,500 Descending Jacksonville Center
10:13AM 33.5117 -79.4450 212° Southwest 315 362 12,600 -1,500 Descending Jacksonville Center
10:14AM 33.4403 -79.5000 213° Southwest 310 357 11,100 -850 Descending Jacksonville Center
10:15AM 33.3747 -79.5497 212° Southwest 305 351 10,900 -300 Descending Jacksonville Center
10:16AM 33.3114 -79.6044 216° Southwest 292 336 10,500 -1,400 Descending Jacksonville Center
10:17AM 33.2633 -79.6756 231° Southwest 285 328 8,100 -2,450 Descending Jacksonville Center
10:18AM 33.2169 -79.7419 230° Southwest 278 320 5,600 -2,450 Descending Jacksonville Center
10:19AM 33.1706 -79.8081 230° Southwest 266 306 3,200 -1,650 Descending Jacksonville Center
10:20AM 33.1342 -79.8614 231° Southwest 244 281 2,300 -850 Descending Jacksonville Center
10:21AM 33.1042 -79.9069 232° Southwest 209 241 1,500 -400 Descending Jacksonville Center
10:22AM 33.0717 -79.9478 226° Southwest 185 213 1,500  Level Jacksonville Center
10:24AM 32.9523 -80.0118 220° Southwest  Level Estimated
10:31AM 32.8986 -80.0405 348° North  Level Estimated
10:32AM 32.8986 -80.0405 348° North  Level Estimated
10:33AM 32.8986 -80.0405 348° North  Level Estimated
10:34AM 32.8986 -80.0405 348° North  Level Estimated

Login

Don't have an account? Register now (free) for customized features, flight alerts, and more!